sensor_id;sensor_type;location;lat;lon;timestamp;P1;durP1;ratioP1;P2;durP2;ratioP2
71562;SDS011;59391;52.504;13.438;2023-03-01T00:00:16;26.80;;;13.87;;
71562;SDS011;59391;52.504;13.438;2023-03-01T00:05:46;25.45;;;14.13;;
71562;SDS011;59391;52.504;13.438;2023-03-01T00:08:12;25.73;;;13.90;;
71562;SDS011;59391;52.504;13.438;2023-03-01T00:10:38;27.57;;;14.03;;
71562;SDS011;59391;52.504;13.438;2023-03-01T00:13:04;29.63;;;15.32;;
71562;SDS011;59391;52.504;13.438;2023-03-01T00:15:30;28.05;;;14.57;;
71562;SDS011;59391;52.504;13.438;2023-03-01T00:17:57;28.10;;;14.67;;
71562;SDS011;59391;52.504;13.438;2023-03-01T00:20:22;28.73;;;15.32;;
71562;SDS011;59391;52.504;13.438;2023-03-01T00:22:48;29.65;;;15.45;;
71562;SDS011;59391;52.504;13.438;2023-03-01T00:25:14;29.37;;;14.47;;
71562;SDS011;59391;52.504;13.438;2023-03-01T00:27:40;30.10;;;14.45;;
71562;SDS011;59391;52.504;13.438;2023-03-01T00:30:05;24.87;;;13.73;;
71562;SDS011;59391;52.504;13.438;2023-03-01T00:32:35;34.05;;;15.35;;
71562;SDS011;59391;52.504;13.438;2023-03-01T00:35:01;35.15;;;16.60;;
71562;SDS011;59391;52.504;13.438;2023-03-01T00:37:27;34.93;;;16.27;;
71562;SDS011;59391;52.504;13.438;2023-03-01T00:39:52;33.80;;;14.77;;
71562;SDS011;59391;52.504;13.438;2023-03-01T00:42:21;30.15;;;15.55;;
71562;SDS011;59391;52.504;13.438;2023-03-01T00:44:47;33.40;;;16.17;;
71562;SDS011;59391;52.504;13.438;2023-03-01T00:47:12;29.87;;;15.53;;
71562;SDS011;59391;52.504;13.438;2023-03-01T00:49:38;29.02;;;15.80;;
71562;SDS011;59391;52.504;13.438;2023-03-01T00:52:06;27.52;;;13.93;;
71562;SDS011;59391;52.504;13.438;2023-03-01T00:54:32;29.17;;;14.57;;
71562;SDS011;59391;52.504;13.438;2023-03-01T00:56:58;25.30;;;13.80;;
71562;SDS011;59391;52.504;13.438;2023-03-01T00:59:23;26.98;;;14.55;;
71562;SDS011;59391;52.504;13.438;2023-03-01T01:01:49;25.97;;;14.00;;
71562;SDS011;59391;52.504;13.438;2023-03-01T01:04:15;27.63;;;14.40;;
71562;SDS011;59391;52.504;13.438;2023-03-01T01:06:49;31.67;;;14.43;;
71562;SDS011;59391;52.504;13.438;2023-03-01T01:09:49;29.90;;;13.95;;
71562;SDS011;59391;52.504;13.438;2023-03-01T01:12:14;29.03;;;14.67;;
71562;SDS011;59391;52.504;13.438;2023-03-01T01:14:40;24.13;;;12.93;;
71562;SDS011;59391;52.504;13.438;2023-03-01T01:17:06;25.17;;;12.83;;
71562;SDS011;59391;52.504;13.438;2023-03-01T01:19:31;24.53;;;13.00;;
71562;SDS011;59391;52.504;13.438;2023-03-01T01:21:57;25.88;;;12.60;;
71562;SDS011;59391;52.504;13.438;2023-03-01T01:24:23;25.63;;;13.23;;
71562;SDS011;59391;52.504;13.438;2023-03-01T01:26:49;26.20;;;14.00;;
71562;SDS011;59391;52.504;13.438;2023-03-01T01:29:14;22.70;;;12.83;;
71562;SDS011;59391;52.504;13.438;2023-03-01T01:31:41;24.77;;;13.27;;
71562;SDS011;59391;52.504;13.438;2023-03-01T01:34:10;24.42;;;12.85;;
71562;SDS011;59391;52.504;13.438;2023-03-01T01:36:41;28.95;;;13.93;;
71562;SDS011;59391;52.504;13.438;2023-03-01T01:39:07;26.75;;;15.05;;
71562;SDS011;59391;52.504;13.438;2023-03-01T01:41:38;28.07;;;14.87;;
71562;SDS011;59391;52.504;13.438;2023-03-01T01:44:14;24.90;;;13.73;;
71562;SDS011;59391;52.504;13.438;2023-03-01T01:46:55;27.30;;;14.00;;
71562;SDS011;59391;52.504;13.438;2023-03-01T01:52:18;24.67;;;13.25;;
71562;SDS011;59391;52.504;13.438;2023-03-01T01:54:50;23.83;;;12.63;;
71562;SDS011;59391;52.504;13.438;2023-03-01T01:57:34;22.67;;;12.80;;
71562;SDS011;59391;52.504;13.438;2023-03-01T02:00:10;26.65;;;13.00;;
71562;SDS011;59391;52.504;13.438;2023-03-01T02:02:41;24.27;;;12.55;;
71562;SDS011;59391;52.504;13.438;2023-03-01T02:05:22;27.73;;;13.35;;
71562;SDS011;59391;52.504;13.438;2023-03-01T02:08:12;23.83;;;13.13;;
71562;SDS011;59391;52.504;13.438;2023-03-01T02:10:41;23.63;;;13.38;;
71562;SDS011;59391;52.504;13.438;2023-03-01T02:13:07;24.60;;;12.93;;
71562;SDS011;59391;52.504;13.438;2023-03-01T02:15:34;21.92;;;12.93;;
71562;SDS011;59391;52.504;13.438;2023-03-01T02:18:02;21.58;;;12.48;;
71562;SDS011;59391;52.504;13.438;2023-03-01T02:20:34;23.23;;;13.07;;
71562;SDS011;59391;52.504;13.438;2023-03-01T02:23:10;21.58;;;12.68;;
71562;SDS011;59391;52.504;13.438;2023-03-01T02:28:36;24.58;;;12.32;;
71562;SDS011;59391;52.504;13.438;2023-03-01T02:31:07;26.60;;;14.00;;
71562;SDS011;59391;52.504;13.438;2023-03-01T02:33:54;25.13;;;13.93;;
71562;SDS011;59391;52.504;13.438;2023-03-01T02:36:22;25.33;;;13.80;;
71562;SDS011;59391;52.504;13.438;2023-03-01T02:38:59;25.88;;;14.13;;
71562;SDS011;59391;52.504;13.438;2023-03-01T02:41:28;28.30;;;13.38;;
71562;SDS011;59391;52.504;13.438;2023-03-01T02:43:59;28.40;;;14.05;;
71562;SDS011;59391;52.504;13.438;2023-03-01T02:46:25;27.67;;;13.67;;
71562;SDS011;59391;52.504;13.438;2023-03-01T02:48:52;24.08;;;12.88;;
71562;SDS011;59391;52.504;13.438;2023-03-01T02:56:51;24.13;;;12.80;;
71562;SDS011;59391;52.504;13.438;2023-03-01T02:59:19;23.50;;;12.93;;
71562;SDS011;59391;52.504;13.438;2023-03-01T03:01:48;29.83;;;15.18;;
71562;SDS011;59391;52.504;13.438;2023-03-01T03:04:15;29.87;;;14.27;;
71562;SDS011;59391;52.504;13.438;2023-03-01T03:06:44;25.70;;;13.38;;
71562;SDS011;59391;52.504;13.438;2023-03-01T03:09:11;27.13;;;13.68;;
71562;SDS011;59391;52.504;13.438;2023-03-01T03:11:38;24.05;;;13.30;;
71562;SDS011;59391;52.504;13.438;2023-03-01T03:14:05;27.97;;;14.93;;
71562;SDS011;59391;52.504;13.438;2023-03-01T03:16:38;27.73;;;14.40;;
71562;SDS011;59391;52.504;13.438;2023-03-01T03:19:10;27.48;;;14.20;;
71562;SDS011;59391;52.504;13.438;2023-03-01T03:21:37;29.67;;;14.70;;
71562;SDS011;59391;52.504;13.438;2023-03-01T03:24:03;28.75;;;13.73;;
71562;SDS011;59391;52.504;13.438;2023-03-01T03:26:29;27.30;;;14.13;;
71562;SDS011;59391;52.504;13.438;2023-03-01T03:28:56;25.33;;;13.98;;
71562;SDS011;59391;52.504;13.438;2023-03-01T03:31:22;24.95;;;13.93;;
71562;SDS011;59391;52.504;13.438;2023-03-01T03:33:48;26.02;;;14.25;;
71562;SDS011;59391;52.504;13.438;2023-03-01T03:36:17;26.52;;;14.35;;
71562;SDS011;59391;52.504;13.438;2023-03-01T03:38:47;26.23;;;14.57;;
71562;SDS011;59391;52.504;13.438;2023-03-01T03:41:13;26.40;;;15.05;;
71562;SDS011;59391;52.504;13.438;2023-03-01T03:43:41;30.25;;;14.25;;
71562;SDS011;59391;52.504;13.438;2023-03-01T03:46:09;29.75;;;15.57;;
71562;SDS011;59391;52.504;13.438;2023-03-01T03:48:37;30.92;;;15.82;;
71562;SDS011;59391;52.504;13.438;2023-03-01T03:51:15;27.33;;;14.67;;
71562;SDS011;59391;52.504;13.438;2023-03-01T03:53:42;30.60;;;15.23;;
71562;SDS011;59391;52.504;13.438;2023-03-01T03:56:09;32.35;;;15.90;;
71562;SDS011;59391;52.504;13.438;2023-03-01T03:58:35;28.67;;;15.50;;
71562;SDS011;59391;52.504;13.438;2023-03-01T04:01:01;30.83;;;15.93;;
71562;SDS011;59391;52.504;13.438;2023-03-01T04:03:27;32.95;;;16.83;;
71562;SDS011;59391;52.504;13.438;2023-03-01T04:05:56;36.17;;;16.10;;
71562;SDS011;59391;52.504;13.438;2023-03-01T04:08:23;30.75;;;15.38;;
71562;SDS011;59391;52.504;13.438;2023-03-01T04:10:50;34.35;;;16.55;;
71562;SDS011;59391;52.504;13.438;2023-03-01T04:13:21;32.77;;;16.43;;
71562;SDS011;59391;52.504;13.438;2023-03-01T04:15:50;30.63;;;15.98;;
71562;SDS011;59391;52.504;13.438;2023-03-01T04:18:18;28.67;;;15.95;;
71562;SDS011;59391;52.504;13.438;2023-03-01T04:20:46;29.95;;;15.75;;
71562;SDS011;59391;52.504;13.438;2023-03-01T04:23:16;35.47;;;17.83;;
71562;SDS011;59391;52.504;13.438;2023-03-01T04:25:47;31.17;;;17.07;;
71562;SDS011;59391;52.504;13.438;2023-03-01T04:28:21;33.30;;;17.00;;
71562;SDS011;59391;52.504;13.438;2023-03-01T04:30:55;31.27;;;17.95;;
71562;SDS011;59391;52.504;13.438;2023-03-01T04:33:24;33.20;;;17.25;;
71562;SDS011;59391;52.504;13.438;2023-03-01T04:35:50;33.97;;;17.60;;
71562;SDS011;59391;52.504;13.438;2023-03-01T04:38:19;32.30;;;16.37;;
71562;SDS011;59391;52.504;13.438;2023-03-01T04:40:46;31.13;;;16.38;;
71562;SDS011;59391;52.504;13.438;2023-03-01T04:43:12;41.88;;;18.35;;
71562;SDS011;59391;52.504;13.438;2023-03-01T04:45:41;35.87;;;17.90;;
71562;SDS011;59391;52.504;13.438;2023-03-01T04:48:07;36.90;;;17.58;;
71562;SDS011;59391;52.504;13.438;2023-03-01T04:50:33;35.45;;;19.35;;
71562;SDS011;59391;52.504;13.438;2023-03-01T04:52:59;32.92;;;17.63;;
71562;SDS011;59391;52.504;13.438;2023-03-01T04:55:26;31.17;;;18.93;;
71562;SDS011;59391;52.504;13.438;2023-03-01T04:57:53;34.53;;;17.45;;
71562;SDS011;59391;52.504;13.438;2023-03-01T05:00:19;33.35;;;17.85;;
71562;SDS011;59391;52.504;13.438;2023-03-01T05:02:47;38.17;;;18.90;;
71562;SDS011;59391;52.504;13.438;2023-03-01T05:05:22;31.73;;;17.83;;
71562;SDS011;59391;52.504;13.438;2023-03-01T05:07:52;33.03;;;19.00;;
71562;SDS011;59391;52.504;13.438;2023-03-01T05:10:22;36.78;;;18.88;;
71562;SDS011;59391;52.504;13.438;2023-03-01T05:12:48;32.20;;;18.17;;
71562;SDS011;59391;52.504;13.438;2023-03-01T05:15:14;34.07;;;18.73;;
71562;SDS011;59391;52.504;13.438;2023-03-01T05:17:40;38.75;;;19.98;;
71562;SDS011;59391;52.504;13.438;2023-03-01T05:20:05;33.87;;;19.17;;
71562;SDS011;59391;52.504;13.438;2023-03-01T05:22:33;36.22;;;20.02;;
71562;SDS011;59391;52.504;13.438;2023-03-01T05:25:00;37.67;;;19.02;;
71562;SDS011;59391;52.504;13.438;2023-03-01T05:27:28;38.20;;;20.80;;
71562;SDS011;59391;52.504;13.438;2023-03-01T05:29:54;33.90;;;19.50;;
71562;SDS011;59391;52.504;13.438;2023-03-01T05:32:20;37.72;;;20.58;;
71562;SDS011;59391;52.504;13.438;2023-03-01T05:34:46;38.40;;;19.98;;
71562;SDS011;59391;52.504;13.438;2023-03-01T05:37:12;38.53;;;19.60;;
71562;SDS011;59391;52.504;13.438;2023-03-01T05:39:38;37.25;;;20.50;;
71562;SDS011;59391;52.504;13.438;2023-03-01T05:42:04;39.05;;;21.15;;
71562;SDS011;59391;52.504;13.438;2023-03-01T05:44:30;41.80;;;21.33;;
71562;SDS011;59391;52.504;13.438;2023-03-01T05:46:56;40.70;;;22.13;;
71562;SDS011;59391;52.504;13.438;2023-03-01T05:49:22;42.92;;;20.92;;
71562;SDS011;59391;52.504;13.438;2023-03-01T05:51:52;49.53;;;24.02;;
71562;SDS011;59391;52.504;13.438;2023-03-01T05:54:19;52.30;;;24.95;;
71562;SDS011;59391;52.504;13.438;2023-03-01T05:56:46;67.53;;;27.92;;
71562;SDS011;59391;52.504;13.438;2023-03-01T05:59:12;61.95;;;27.27;;
71562;SDS011;59391;52.504;13.438;2023-03-01T06:01:39;57.70;;;25.80;;
71562;SDS011;59391;52.504;13.438;2023-03-01T06:04:05;56.95;;;25.40;;
71562;SDS011;59391;52.504;13.438;2023-03-01T06:06:34;50.63;;;25.37;;
71562;SDS011;59391;52.504;13.438;2023-03-01T06:09:02;47.70;;;24.05;;
71562;SDS011;59391;52.504;13.438;2023-03-01T06:11:29;48.90;;;24.73;;
71562;SDS011;59391;52.504;13.438;2023-03-01T06:13:55;48.60;;;23.97;;
71562;SDS011;59391;52.504;13.438;2023-03-01T06:16:20;50.72;;;24.30;;
71562;SDS011;59391;52.504;13.438;2023-03-01T06:18:46;45.53;;;24.70;;
71562;SDS011;59391;52.504;13.438;2023-03-01T06:21:12;50.20;;;24.55;;
71562;SDS011;59391;52.504;13.438;2023-03-01T06:23:37;44.17;;;23.57;;
71562;SDS011;59391;52.504;13.438;2023-03-01T06:26:07;44.63;;;24.23;;
71562;SDS011;59391;52.504;13.438;2023-03-01T06:28:34;66.18;;;31.05;;
71562;SDS011;59391;52.504;13.438;2023-03-01T06:31:00;64.85;;;30.02;;
71562;SDS011;59391;52.504;13.438;2023-03-01T06:33:26;74.78;;;32.35;;
71562;SDS011;59391;52.504;13.438;2023-03-01T06:35:54;62.60;;;29.67;;
71562;SDS011;59391;52.504;13.438;2023-03-01T06:38:21;48.50;;;23.02;;
71562;SDS011;59391;52.504;13.438;2023-03-01T06:40:52;43.22;;;23.42;;
71562;SDS011;59391;52.504;13.438;2023-03-01T06:43:19;53.83;;;26.33;;
71562;SDS011;59391;52.504;13.438;2023-03-01T06:45:45;46.58;;;23.52;;
71562;SDS011;59391;52.504;13.438;2023-03-01T06:48:11;45.95;;;22.98;;
71562;SDS011;59391;52.504;13.438;2023-03-01T06:50:36;46.53;;;22.87;;
71562;SDS011;59391;52.504;13.438;2023-03-01T06:53:02;46.42;;;23.63;;
71562;SDS011;59391;52.504;13.438;2023-03-01T06:55:28;41.87;;;22.70;;
71562;SDS011;59391;52.504;13.438;2023-03-01T06:57:55;44.58;;;22.63;;
71562;SDS011;59391;52.504;13.438;2023-03-01T07:00:23;43.00;;;23.23;;
71562;SDS011;59391;52.504;13.438;2023-03-01T07:02:50;46.40;;;24.23;;
71562;SDS011;59391;52.504;13.438;2023-03-01T07:05:16;40.15;;;22.20;;
71562;SDS011;59391;52.504;13.438;2023-03-01T07:07:42;44.33;;;23.63;;
71562;SDS011;59391;52.504;13.438;2023-03-01T07:10:07;43.17;;;24.17;;
71562;SDS011;59391;52.504;13.438;2023-03-01T07:12:34;48.20;;;23.57;;
71562;SDS011;59391;52.504;13.438;2023-03-01T07:15:00;46.60;;;24.48;;
71562;SDS011;59391;52.504;13.438;2023-03-01T07:17:25;53.87;;;26.53;;
71562;SDS011;59391;52.504;13.438;2023-03-01T07:19:51;49.05;;;25.55;;
71562;SDS011;59391;52.504;13.438;2023-03-01T07:22:17;49.37;;;26.47;;
71562;SDS011;59391;52.504;13.438;2023-03-01T07:24:42;50.88;;;25.92;;
71562;SDS011;59391;52.504;13.438;2023-03-01T07:27:09;45.03;;;24.47;;
71562;SDS011;59391;52.504;13.438;2023-03-01T07:29:35;45.92;;;24.35;;
71562;SDS011;59391;52.504;13.438;2023-03-01T07:32:01;42.92;;;23.77;;
71562;SDS011;59391;52.504;13.438;2023-03-01T07:34:28;45.10;;;23.73;;
71562;SDS011;59391;52.504;13.438;2023-03-01T07:36:54;46.13;;;22.92;;
71562;SDS011;59391;52.504;13.438;2023-03-01T07:39:20;38.13;;;20.70;;
71562;SDS011;59391;52.504;13.438;2023-03-01T07:41:48;41.83;;;22.80;;
71562;SDS011;59391;52.504;13.438;2023-03-01T07:44:14;42.65;;;22.15;;
71562;SDS011;59391;52.504;13.438;2023-03-01T07:46:41;44.35;;;21.75;;
71562;SDS011;59391;52.504;13.438;2023-03-01T07:49:07;37.23;;;19.57;;
71562;SDS011;59391;52.504;13.438;2023-03-01T07:51:32;35.77;;;18.30;;
71562;SDS011;59391;52.504;13.438;2023-03-01T07:53:58;35.58;;;17.52;;
71562;SDS011;59391;52.504;13.438;2023-03-01T07:56:23;36.40;;;17.47;;
71562;SDS011;59391;52.504;13.438;2023-03-01T07:58:49;29.95;;;16.15;;
71562;SDS011;59391;52.504;13.438;2023-03-01T08:01:19;33.27;;;15.60;;
71562;SDS011;59391;52.504;13.438;2023-03-01T08:03:46;31.52;;;15.07;;
71562;SDS011;59391;52.504;13.438;2023-03-01T08:06:13;33.50;;;16.92;;
71562;SDS011;59391;52.504;13.438;2023-03-01T08:08:40;32.13;;;17.20;;
71562;SDS011;59391;52.504;13.438;2023-03-01T08:11:07;34.60;;;17.85;;
71562;SDS011;59391;52.504;13.438;2023-03-01T08:13:35;32.33;;;17.30;;
71562;SDS011;59391;52.504;13.438;2023-03-01T08:16:04;33.10;;;16.75;;
71562;SDS011;59391;52.504;13.438;2023-03-01T08:18:36;36.40;;;17.05;;
71562;SDS011;59391;52.504;13.438;2023-03-01T08:21:05;32.70;;;17.30;;
71562;SDS011;59391;52.504;13.438;2023-03-01T08:23:34;33.17;;;16.50;;
71562;SDS011;59391;52.504;13.438;2023-03-01T08:26:06;26.17;;;15.73;;
71562;SDS011;59391;52.504;13.438;2023-03-01T08:28:41;26.35;;;15.48;;
71562;SDS011;59391;52.504;13.438;2023-03-01T08:31:14;24.33;;;14.88;;
71562;SDS011;59391;52.504;13.438;2023-03-01T08:33:47;23.42;;;14.57;;
71562;SDS011;59391;52.504;13.438;2023-03-01T08:36:20;31.27;;;15.33;;
71562;SDS011;59391;52.504;13.438;2023-03-01T08:38:48;31.95;;;15.65;;
71562;SDS011;59391;52.504;13.438;2023-03-01T08:41:14;21.80;;;13.82;;
71562;SDS011;59391;52.504;13.438;2023-03-01T08:43:40;23.50;;;13.02;;
71562;SDS011;59391;52.504;13.438;2023-03-01T08:46:06;24.20;;;13.17;;
71562;SDS011;59391;52.504;13.438;2023-03-01T08:48:32;22.60;;;13.13;;
71562;SDS011;59391;52.504;13.438;2023-03-01T08:51:06;21.87;;;13.47;;
71562;SDS011;59391;52.504;13.438;2023-03-01T08:53:38;22.85;;;13.02;;
71562;SDS011;59391;52.504;13.438;2023-03-01T08:56:05;25.73;;;11.65;;
71562;SDS011;59391;52.504;13.438;2023-03-01T08:58:31;19.70;;;11.00;;
71562;SDS011;59391;52.504;13.438;2023-03-01T09:00:57;16.92;;;10.65;;
71562;SDS011;59391;52.504;13.438;2023-03-01T09:03:23;16.43;;;10.03;;
71562;SDS011;59391;52.504;13.438;2023-03-01T09:05:50;21.60;;;10.15;;
71562;SDS011;59391;52.504;13.438;2023-03-01T09:08:17;18.42;;;8.57;;
71562;SDS011;59391;52.504;13.438;2023-03-01T09:10:43;14.93;;;8.30;;
71562;SDS011;59391;52.504;13.438;2023-03-01T09:13:09;12.68;;;6.40;;
71562;SDS011;59391;52.504;13.438;2023-03-01T09:15:38;14.57;;;7.80;;
71562;SDS011;59391;52.504;13.438;2023-03-01T09:18:04;13.55;;;8.10;;
71562;SDS011;59391;52.504;13.438;2023-03-01T09:20:31;14.95;;;8.32;;
71562;SDS011;59391;52.504;13.438;2023-03-01T09:22:57;15.80;;;8.25;;
71562;SDS011;59391;52.504;13.438;2023-03-01T09:25:23;16.00;;;7.78;;
71562;SDS011;59391;52.504;13.438;2023-03-01T09:27:52;17.30;;;9.45;;
71562;SDS011;59391;52.504;13.438;2023-03-01T09:30:19;21.55;;;10.40;;
71562;SDS011;59391;52.504;13.438;2023-03-01T09:32:45;11.32;;;6.30;;
71562;SDS011;59391;52.504;13.438;2023-03-01T09:35:12;10.10;;;5.65;;
71562;SDS011;59391;52.504;13.438;2023-03-01T09:37:38;10.27;;;5.63;;
71562;SDS011;59391;52.504;13.438;2023-03-01T09:40:10;11.00;;;6.05;;
71562;SDS011;59391;52.504;13.438;2023-03-01T09:42:45;11.85;;;6.78;;
71562;SDS011;59391;52.504;13.438;2023-03-01T09:45:29;9.70;;;6.25;;
71562;SDS011;59391;52.504;13.438;2023-03-01T09:48:03;17.55;;;8.35;;
71562;SDS011;59391;52.504;13.438;2023-03-01T09:50:35;12.75;;;7.03;;
71562;SDS011;59391;52.504;13.438;2023-03-01T09:53:13;11.63;;;6.70;;
71562;SDS011;59391;52.504;13.438;2023-03-01T09:55:48;13.75;;;6.85;;
71562;SDS011;59391;52.504;13.438;2023-03-01T10:10:39;12.18;;;6.05;;
71562;SDS011;59391;52.504;13.438;2023-03-01T10:13:18;10.18;;;5.90;;
71562;SDS011;59391;52.504;13.438;2023-03-01T10:15:50;12.50;;;6.60;;
71562;SDS011;59391;52.504;13.438;2023-03-01T10:18:23;11.73;;;5.38;;
71562;SDS011;59391;52.504;13.438;2023-03-01T10:20:58;9.32;;;5.65;;
71562;SDS011;59391;52.504;13.438;2023-03-01T10:23:30;11.25;;;6.82;;
71562;SDS011;59391;52.504;13.438;2023-03-01T10:26:12;10.70;;;6.05;;
71562;SDS011;59391;52.504;13.438;2023-03-01T10:31:40;12.60;;;6.60;;
71562;SDS011;59391;52.504;13.438;2023-03-01T10:34:12;11.70;;;6.60;;
71562;SDS011;59391;52.504;13.438;2023-03-01T10:36:40;14.32;;;6.90;;
71562;SDS011;59391;52.504;13.438;2023-03-01T10:39:13;10.40;;;6.05;;
71562;SDS011;59391;52.504;13.438;2023-03-01T10:41:51;9.32;;;5.65;;
71562;SDS011;59391;52.504;13.438;2023-03-01T10:47:18;12.23;;;6.13;;
71562;SDS011;59391;52.504;13.438;2023-03-01T10:50:26;12.80;;;6.13;;
71562;SDS011;59391;52.504;13.438;2023-03-01T10:52:57;11.23;;;5.60;;
71562;SDS011;59391;52.504;13.438;2023-03-01T10:55:39;16.33;;;8.10;;
71562;SDS011;59391;52.504;13.438;2023-03-01T10:58:07;10.68;;;5.93;;
71562;SDS011;59391;52.504;13.438;2023-03-01T11:00:45;11.15;;;5.63;;
71562;SDS011;59391;52.504;13.438;2023-03-01T11:03:13;11.07;;;5.43;;
71562;SDS011;59391;52.504;13.438;2023-03-01T11:05:49;8.75;;;5.30;;
71562;SDS011;59391;52.504;13.438;2023-03-01T11:08:44;11.18;;;4.95;;
71562;SDS011;59391;52.504;13.438;2023-03-01T11:11:19;9.95;;;5.15;;
71562;SDS011;59391;52.504;13.438;2023-03-01T11:13:55;7.13;;;4.88;;
71562;SDS011;59391;52.504;13.438;2023-03-01T11:19:13;9.35;;;4.82;;
71562;SDS011;59391;52.504;13.438;2023-03-01T11:21:47;10.02;;;5.25;;
71562;SDS011;59391;52.504;13.438;2023-03-01T11:24:29;14.52;;;5.95;;
71562;SDS011;59391;52.504;13.438;2023-03-01T11:27:30;8.50;;;4.90;;
71562;SDS011;59391;52.504;13.438;2023-03-01T11:30:13;9.82;;;5.13;;
71562;SDS011;59391;52.504;13.438;2023-03-01T11:35:33;8.00;;;4.07;;
71562;SDS011;59391;52.504;13.438;2023-03-01T11:40:52;8.30;;;4.15;;
71562;SDS011;59391;52.504;13.438;2023-03-01T11:51:57;7.55;;;3.63;;
71562;SDS011;59391;52.504;13.438;2023-03-01T11:57:58;9.57;;;4.60;;
71562;SDS011;59391;52.504;13.438;2023-03-01T12:00:58;6.75;;;3.53;;
71562;SDS011;59391;52.504;13.438;2023-03-01T12:04:18;6.27;;;3.83;;
71562;SDS011;59391;52.504;13.438;2023-03-01T12:07:04;6.90;;;3.67;;
71562;SDS011;59391;52.504;13.438;2023-03-01T12:12:47;6.20;;;3.85;;
71562;SDS011;59391;52.504;13.438;2023-03-01T12:15:31;9.15;;;3.75;;
71562;SDS011;59391;52.504;13.438;2023-03-01T12:18:21;5.80;;;3.03;;
71562;SDS011;59391;52.504;13.438;2023-03-01T12:24:41;13.52;;;3.83;;
71562;SDS011;59391;52.504;13.438;2023-03-01T12:49:31;5.63;;;3.20;;
71562;SDS011;59391;52.504;13.438;2023-03-01T12:52:31;7.13;;;3.20;;
71562;SDS011;59391;52.504;13.438;2023-03-01T12:55:18;6.00;;;2.92;;
71562;SDS011;59391;52.504;13.438;2023-03-01T12:58:04;8.65;;;3.60;;
71562;SDS011;59391;52.504;13.438;2023-03-01T13:07:04;5.60;;;3.20;;
71562;SDS011;59391;52.504;13.438;2023-03-01T13:17:49;5.53;;;2.90;;
71562;SDS011;59391;52.504;13.438;2023-03-01T13:20:21;6.07;;;3.40;;
71562;SDS011;59391;52.504;13.438;2023-03-01T13:23:02;5.18;;;3.15;;
71562;SDS011;59391;52.504;13.438;2023-03-01T13:25:33;6.80;;;3.17;;
71562;SDS011;59391;52.504;13.438;2023-03-01T13:31:00;5.57;;;3.30;;
71562;SDS011;59391;52.504;13.438;2023-03-01T13:35:55;7.33;;;3.80;;
71562;SDS011;59391;52.504;13.438;2023-03-01T13:41:11;5.88;;;3.40;;
71562;SDS011;59391;52.504;13.438;2023-03-01T13:43:43;5.82;;;3.30;;
71562;SDS011;59391;52.504;13.438;2023-03-01T13:46:21;6.38;;;3.50;;
71562;SDS011;59391;52.504;13.438;2023-03-01T13:48:53;8.47;;;4.43;;
71562;SDS011;59391;52.504;13.438;2023-03-01T13:51:26;6.43;;;3.40;;
71562;SDS011;59391;52.504;13.438;2023-03-01T13:53:53;8.65;;;4.35;;
71562;SDS011;59391;52.504;13.438;2023-03-01T13:56:29;8.57;;;3.85;;
71562;SDS011;59391;52.504;13.438;2023-03-01T13:59:18;9.48;;;3.92;;
71562;SDS011;59391;52.504;13.438;2023-03-01T14:01:53;6.93;;;3.70;;
71562;SDS011;59391;52.504;13.438;2023-03-01T14:04:26;6.95;;;3.65;;
71562;SDS011;59391;52.504;13.438;2023-03-01T14:07:16;7.25;;;3.53;;
71562;SDS011;59391;52.504;13.438;2023-03-01T14:09:46;6.63;;;3.55;;
71562;SDS011;59391;52.504;13.438;2023-03-01T14:18:14;7.50;;;4.22;;
71562;SDS011;59391;52.504;13.438;2023-03-01T14:20:48;6.95;;;3.30;;
71562;SDS011;59391;52.504;13.438;2023-03-01T14:23:17;9.40;;;3.20;;
71562;SDS011;59391;52.504;13.438;2023-03-01T14:25:56;5.22;;;3.10;;
71562;SDS011;59391;52.504;13.438;2023-03-01T14:28:24;6.10;;;2.80;;
71562;SDS011;59391;52.504;13.438;2023-03-01T14:30:56;7.20;;;3.05;;
71562;SDS011;59391;52.504;13.438;2023-03-01T14:33:34;8.25;;;3.17;;
71562;SDS011;59391;52.504;13.438;2023-03-01T14:36:03;7.63;;;3.33;;
71562;SDS011;59391;52.504;13.438;2023-03-01T14:38:36;8.52;;;4.25;;
71562;SDS011;59391;52.504;13.438;2023-03-01T14:43:45;6.65;;;3.45;;
71562;SDS011;59391;52.504;13.438;2023-03-01T14:46:23;6.13;;;2.70;;
71562;SDS011;59391;52.504;13.438;2023-03-01T14:49:05;7.75;;;3.38;;
71562;SDS011;59391;52.504;13.438;2023-03-01T14:51:52;5.70;;;3.13;;
71562;SDS011;59391;52.504;13.438;2023-03-01T14:54:25;5.90;;;3.23;;
71562;SDS011;59391;52.504;13.438;2023-03-01T14:57:14;6.63;;;3.22;;
71562;SDS011;59391;52.504;13.438;2023-03-01T14:59:49;5.75;;;3.10;;
71562;SDS011;59391;52.504;13.438;2023-03-01T15:02:20;6.78;;;3.22;;
71562;SDS011;59391;52.504;13.438;2023-03-01T15:04:51;7.10;;;3.40;;
71562;SDS011;59391;52.504;13.438;2023-03-01T15:07:26;8.97;;;3.37;;
71562;SDS011;59391;52.504;13.438;2023-03-01T15:09:57;9.25;;;4.32;;
71562;SDS011;59391;52.504;13.438;2023-03-01T15:14:57;8.65;;;4.10;;
71562;SDS011;59391;52.504;13.438;2023-03-01T15:17:33;6.13;;;3.15;;
71562;SDS011;59391;52.504;13.438;2023-03-01T15:20:04;6.90;;;3.90;;
71562;SDS011;59391;52.504;13.438;2023-03-01T15:22:43;8.80;;;3.65;;
71562;SDS011;59391;52.504;13.438;2023-03-01T15:25:16;6.78;;;4.00;;
71562;SDS011;59391;52.504;13.438;2023-03-01T15:27:46;6.85;;;3.35;;
71562;SDS011;59391;52.504;13.438;2023-03-01T15:30:18;6.95;;;3.67;;
71562;SDS011;59391;52.504;13.438;2023-03-01T15:33:47;6.57;;;3.40;;
71562;SDS011;59391;52.504;13.438;2023-03-01T15:35:52;6.88;;;3.50;;
71562;SDS011;59391;52.504;13.438;2023-03-01T15:38:24;9.00;;;3.90;;
71562;SDS011;59391;52.504;13.438;2023-03-01T15:40:57;9.75;;;4.63;;
71562;SDS011;59391;52.504;13.438;2023-03-01T15:43:37;7.95;;;4.53;;
71562;SDS011;59391;52.504;13.438;2023-03-01T15:46:19;9.00;;;4.17;;
71562;SDS011;59391;52.504;13.438;2023-03-01T15:48:57;9.63;;;4.32;;
71562;SDS011;59391;52.504;13.438;2023-03-01T15:51:34;11.95;;;4.80;;
71562;SDS011;59391;52.504;13.438;2023-03-01T15:54:04;7.55;;;4.30;;
71562;SDS011;59391;52.504;13.438;2023-03-01T15:56:51;8.02;;;3.92;;
71562;SDS011;59391;52.504;13.438;2023-03-01T15:59:17;9.57;;;5.17;;
71562;SDS011;59391;52.504;13.438;2023-03-01T16:01:43;8.60;;;4.07;;
71562;SDS011;59391;52.504;13.438;2023-03-01T16:04:13;12.20;;;4.47;;
71562;SDS011;59391;52.504;13.438;2023-03-01T16:06:47;9.63;;;4.60;;
71562;SDS011;59391;52.504;13.438;2023-03-01T16:09:24;10.38;;;7.35;;
71562;SDS011;59391;52.504;13.438;2023-03-01T16:11:51;10.30;;;5.57;;
71562;SDS011;59391;52.504;13.438;2023-03-01T16:14:19;7.80;;;4.10;;
71562;SDS011;59391;52.504;13.438;2023-03-01T16:16:45;8.93;;;4.90;;
71562;SDS011;59391;52.504;13.438;2023-03-01T16:19:13;8.82;;;4.15;;
71562;SDS011;59391;52.504;13.438;2023-03-01T16:21:39;11.32;;;5.70;;
71562;SDS011;59391;52.504;13.438;2023-03-01T16:24:07;8.73;;;4.20;;
71562;SDS011;59391;52.504;13.438;2023-03-01T16:26:33;11.10;;;5.75;;
71562;SDS011;59391;52.504;13.438;2023-03-01T16:29:01;12.40;;;5.88;;
71562;SDS011;59391;52.504;13.438;2023-03-01T16:31:26;10.23;;;5.13;;